Time;durP1;ratioP1;P1;durP2;ratioP2;P2;SDS_P1;SDS_P2;PMS_P1;PMS_P2;Temp;Humidity;BMP_temperature;BMP_pressure;BME280_temperature;BME280_humidity;BME280_pressure;Samples;Min_cycle;Max_cycle;Signal;HPM_P1;HPM_P2
2022/05/09 00:01:38;;;;;;;11.77;7.70;;;;;;;11.42;100.00;100944.72;5069120;28;20232;-64
2022/05/09 00:04:04;;;;;;;10.03;7.83;;;;;;;11.43;100.00;100944.66;5061240;28;20706;-63
2022/05/09 00:06:30;;;;;;;8.40;7.50;;;;;;;11.41;100.00;100943.06;5053802;28;20184;-62
2022/05/09 00:08:55;;;;;;;10.23;8.17;;;;;;;11.39;100.00;100934.59;5054265;28;20173;-62
2022/05/09 00:11:20;;;;;;;9.13;8.23;;;;;;;11.36;100.00;100934.69;5055858;28;20252;-63
2022/05/09 00:13:46;;;;;;;10.83;8.90;;;;;;;11.29;100.00;100932.41;5065720;28;20235;-62
2022/05/09 00:16:11;;;;;;;9.90;7.80;;;;;;;11.29;100.00;100934.97;5053661;28;20224;-62
2022/05/09 00:18:37;;;;;;;9.77;7.70;;;;;;;11.21;100.00;100942.22;5052459;28;20173;-62
2022/05/09 00:21:02;;;;;;;10.27;8.50;;;;;;;11.19;100.00;100938.88;5051316;28;20232;-63
2022/05/09 00:23:28;;;;;;;12.40;8.53;;;;;;;11.21;100.00;100939.66;5069252;28;20629;-63
2022/05/09 00:25:53;;;;;;;10.30;7.67;;;;;;;11.22;100.00;100940.47;5053999;28;20246;-63
2022/05/09 00:28:18;;;;;;;10.20;7.80;;;;;;;11.19;100.00;100935.44;5052131;28;20686;-63
2022/05/09 00:30:44;;;;;;;8.17;7.10;;;;;;;11.18;100.00;100938.94;5039600;28;20244;-62
2022/05/09 00:33:09;;;;;;;10.83;8.90;;;;;;;11.15;100.00;100947.63;5048863;28;20192;-62
2022/05/09 00:35:36;;;;;;;9.87;8.50;;;;;;;11.11;100.00;100940.94;5033913;28;20232;-62
2022/05/09 00:38:01;;;;;;;11.57;8.53;;;;;;;11.09;100.00;100937.59;5032949;28;20202;-63
2022/05/09 00:40:27;;;;;;;9.63;7.67;;;;;;;11.06;100.00;100938.53;5026911;28;20749;-63
2022/05/09 00:42:53;;;;;;;9.43;8.40;;;;;;;11.03;100.00;100937.88;5045833;28;20239;-62
2022/05/09 00:45:26;;;;;;;10.53;8.17;;;;;;;11.05;100.00;100930.91;5033562;28;20182;-62
2022/05/09 00:47:51;;;;;;;12.47;8.10;;;;;;;11.06;100.00;100932.56;5032181;28;20193;-62
2022/05/09 00:50:24;;;;;;;9.47;8.03;;;;;;;11.02;100.00;100931.03;5021407;28;20269;-62
2022/05/09 00:52:55;;;;;;;9.87;8.00;;;;;;;11.02;100.00;100928.47;5024501;28;20189;-61
2022/05/09 00:55:42;;;;;;;8.90;7.77;;;;;;;10.96;100.00;100930.41;5045232;28;20175;-62
2022/05/09 00:58:32;;;;;;;9.70;8.57;;;;;;;11.02;100.00;100933.63;5028171;28;20214;-62
2022/05/09 01:00:57;;;;;;;11.00;8.03;;;;;;;11.03;100.00;100928.41;5018434;28;20225;-62
2022/05/09 01:03:47;;;;;;;9.63;8.20;;;;;;;10.98;100.00;100928.59;5030649;28;20186;-62
2022/05/09 01:06:12;;;;;;;11.97;8.53;;;;;;;10.88;100.00;100929.03;5012932;28;20190;-62
2022/05/09 01:08:38;;;;;;;10.47;8.30;;;;;;;10.92;100.00;100928.03;5013171;28;20255;-62
2022/05/09 01:11:11;;;;;;;9.57;8.50;;;;;;;10.89;100.00;100930.72;5030078;28;20235;-62
2022/05/09 01:13:44;;;;;;;10.00;8.53;;;;;;;10.84;100.00;100927.50;5044077;28;20218;-62
2022/05/09 01:16:11;;;;;;;10.90;8.50;;;;;;;10.88;100.00;100929.03;5030832;28;20279;-62
2022/05/09 01:18:37;;;;;;;10.77;8.97;;;;;;;10.87;100.00;100923.06;5042133;28;20209;-62
2022/05/09 01:21:35;;;;;;;8.97;8.07;;;;;;;10.66;100.00;100925.63;5024627;28;20236;-63
2022/05/09 01:24:01;;;;;;;10.17;8.77;;;;;;;10.85;100.00;100922.28;5036674;28;20182;-62
2022/05/09 01:26:26;;;;;;;9.13;8.23;;;;;;;10.81;100.00;100921.56;5032310;28;20664;-61
2022/05/09 01:28:55;;;;;;;11.40;8.73;;;;;;;10.79;100.00;100925.13;5032863;28;20189;-63
2022/05/09 01:31:21;;;;;;;12.50;8.63;;;;;;;10.79;100.00;100931.13;5032712;28;20316;-62
2022/05/09 01:33:51;;;;;;;11.43;8.60;;;;;;;10.73;100.00;100931.38;5038003;28;20662;-62
2022/05/09 01:36:21;;;;;;;8.97;7.87;;;;;;;10.77;100.00;100929.50;5047609;28;20228;-62
2022/05/09 01:39:02;;;;;;;12.67;9.67;;;;;;;10.61;100.00;100929.31;5030142;28;20186;-62
2022/05/09 01:41:35;;;;;;;9.60;8.53;;;;;;;10.66;100.00;100942.81;5023827;28;20703;-61
2022/05/09 01:44:00;;;;;;;9.67;8.23;;;;;;;10.55;100.00;100929.56;5047762;28;20356;-61
2022/05/09 01:46:28;;;;;;;11.90;9.10;;;;;;;10.48;100.00;100934.97;5032159;28;20288;-62
2022/05/09 01:51:40;;;;;;;10.40;8.87;;;;;;;10.53;100.00;100932.22;5033758;28;20797;-62
2022/05/09 01:54:06;;;;;;;10.47;8.37;;;;;;;10.54;100.00;100933.84;5030917;28;20176;-62
2022/05/09 01:56:34;;;;;;;10.47;8.80;;;;;;;10.56;100.00;100937.22;5031832;28;20543;-62
2022/05/09 01:59:00;;;;;;;10.00;9.00;;;;;;;10.48;100.00;100932.38;5031217;28;20182;-62
2022/05/09 02:01:29;;;;;;;9.67;8.27;;;;;;;10.51;100.00;100936.56;5040229;28;20923;-61
2022/05/09 02:03:56;;;;;;;11.30;9.10;;;;;;;10.47;100.00;100941.00;5030640;28;20299;-62
2022/05/09 02:06:21;;;;;;;10.30;8.53;;;;;;;10.56;100.00;100941.53;5030474;28;20277;-63
2022/05/09 02:08:48;;;;;;;10.43;8.83;;;;;;;10.55;100.00;100940.69;5032039;28;20680;-62
2022/05/09 02:11:13;;;;;;;9.90;8.87;;;;;;;10.55;100.00;100938.09;5031068;28;20225;-62
2022/05/09 02:13:39;;;;;;;11.40;10.00;;;;;;;10.54;100.00;100944.16;5037797;28;20616;-62
2022/05/09 02:16:05;;;;;;;10.43;9.03;;;;;;;10.49;100.00;100939.22;5031588;28;20234;-62
2022/05/09 02:18:32;;;;;;;12.00;9.17;;;;;;;10.47;100.00;100930.72;5031985;28;20710;-61
2022/05/09 02:20:57;;;;;;;14.23;9.33;;;;;;;10.44;100.00;100935.13;5023499;28;20236;-61
2022/05/09 02:23:23;;;;;;;10.43;9.10;;;;;;;10.35;100.00;100933.75;5051041;28;20170;-61
2022/05/09 02:25:48;;;;;;;15.73;11.10;;;;;;;10.38;100.00;100930.25;5051762;28;20185;-63
2022/05/09 02:28:14;;;;;;;11.03;9.57;;;;;;;10.43;100.00;100929.16;5051499;28;20256;-62
2022/05/09 02:30:41;;;;;;;12.13;9.23;;;;;;;10.42;100.00;100931.78;5039963;28;20220;-61
2022/05/09 02:33:07;;;;;;;11.03;9.93;;;;;;;10.39;100.00;100929.34;5055937;28;20254;-61
2022/05/09 02:35:36;;;;;;;13.03;9.77;;;;;;;10.35;100.00;100938.88;5051389;28;20200;-62
2022/05/09 02:38:03;;;;;;;11.43;9.40;;;;;;;10.33;100.00;100938.09;5049815;28;20174;-61
2022/05/09 02:40:29;;;;;;;11.80;9.97;;;;;;;10.27;100.00;100934.06;5044889;28;20236;-61
2022/05/09 02:42:57;;;;;;;14.80;10.13;;;;;;;10.26;100.00;100934.94;5063804;28;20533;-61
2022/05/09 02:45:23;;;;;;;10.60;9.60;;;;;;;10.29;100.00;100932.25;5058366;28;20182;-61
2022/05/09 02:47:48;;;;;;;11.83;10.00;;;;;;;10.31;100.00;100935.59;5019890;28;20191;-62
2022/05/09 02:50:17;;;;;;;11.47;10.27;;;;;;;10.33;100.00;100936.38;5004798;28;20250;-61
2022/05/09 02:52:43;;;;;;;11.90;9.77;;;;;;;10.29;100.00;100939.13;5044853;28;20186;-62
2022/05/09 02:55:10;;;;;;;12.30;10.30;;;;;;;10.26;100.00;100936.69;5031851;28;20178;-61
2022/05/09 02:57:36;;;;;;;10.73;9.73;;;;;;;10.26;100.00;100947.81;5046319;28;20182;-63
2022/05/09 03:00:04;;;;;;;10.90;9.80;;;;;;;10.23;100.00;100939.38;5032167;28;20178;-62
2022/05/09 03:02:29;;;;;;;10.80;9.70;;;;;;;10.21;100.00;100936.03;5013240;28;20565;-62
2022/05/09 03:04:54;;;;;;;11.33;10.00;;;;;;;10.21;100.00;100944.59;5035427;28;20185;-62
2022/05/09 03:07:20;;;;;;;10.40;9.27;;;;;;;10.18;100.00;100942.97;5035008;28;20175;-62
2022/05/09 03:09:48;;;;;;;11.20;9.20;;;;;;;10.12;100.00;100944.94;5035374;28;20177;-61
2022/05/09 03:12:14;;;;;;;10.47;9.37;;;;;;;10.09;100.00;100942.50;5057127;28;20232;-62
2022/05/09 03:14:40;;;;;;;14.93;10.10;;;;;;;10.15;100.00;100940.50;5053164;28;20184;-62
2022/05/09 03:17:08;;;;;;;12.93;10.37;;;;;;;10.08;100.00;100935.69;5059156;28;20240;-63
2022/05/09 03:19:34;;;;;;;12.43;10.37;;;;;;;10.16;100.00;100934.47;5045174;28;20544;-62
2022/05/09 03:22:00;;;;;;;11.30;10.00;;;;;;;10.12;100.00;100937.22;5029864;28;20232;-62
2022/05/09 03:24:25;;;;;;;11.00;9.63;;;;;;;10.08;100.00;100941.66;5033511;28;20178;-62
2022/05/09 03:26:51;;;;;;;10.67;9.50;;;;;;;10.06;100.00;100937.47;5034904;28;20764;-61
2022/05/09 03:29:18;;;;;;;11.10;10.00;;;;;;;10.04;100.00;100929.81;5033690;28;20185;-61
2022/05/09 03:31:46;;;;;;;12.43;10.87;;;;;;;9.98;100.00;100937.75;5017317;28;20225;-63
2022/05/09 03:34:11;;;;;;;11.20;10.10;;;;;;;9.95;100.00;100936.16;5083983;28;20186;-62
2022/05/09 03:36:37;;;;;;;12.23;10.37;;;;;;;9.95;100.00;100932.75;5054746;28;20502;-62
2022/05/09 03:39:02;;;;;;;11.77;10.47;;;;;;;9.97;100.00;100933.53;5054888;28;20181;-61
2022/05/09 03:41:27;;;;;;;11.10;9.97;;;;;;;9.91;100.00;100942.31;5054970;28;20331;-62
2022/05/09 03:43:53;;;;;;;10.93;9.83;;;;;;;9.91;100.00;100941.47;5046381;28;20178;-62
2022/05/09 03:46:18;;;;;;;11.40;9.87;;;;;;;9.91;100.00;100938.91;5049692;28;20185;-63
2022/05/09 03:48:44;;;;;;;11.10;10.00;;;;;;;9.88;100.00;100944.16;5054553;28;20200;-63
2022/05/09 03:51:10;;;;;;;12.70;10.40;;;;;;;9.90;100.00;100944.91;5052890;28;20306;-62
2022/05/09 03:53:35;;;;;;;11.83;10.10;;;;;;;9.89;100.00;100948.41;5061221;28;20173;-62
2022/05/09 03:56:00;;;;;;;10.70;9.67;;;;;;;9.85;100.00;100953.66;5052923;28;20640;-65
2022/05/09 03:58:26;;;;;;;12.50;9.10;;;;;;;9.91;100.00;100955.16;5053294;28;20181;-63
2022/05/09 04:00:52;;;;;;;12.03;9.87;;;;;;;9.92;100.00;100950.84;5069513;28;20235;-61
2022/05/09 04:03:18;;;;;;;11.57;10.37;;;;;;;9.93;100.00;100948.22;5072894;28;20247;-63
2022/05/09 04:05:44;;;;;;;10.57;9.47;;;;;;;9.95;100.00;100954.16;5052526;28;20319;-61
2022/05/09 04:08:12;;;;;;;14.43;11.17;;;;;;;10.01;100.00;100953.09;5069186;28;20645;-62
2022/05/09 04:10:40;;;;;;;11.70;10.47;;;;;;;10.02;100.00;100952.16;5067176;28;20235;-62
2022/05/09 04:13:06;;;;;;;10.20;9.30;;;;;;;10.06;100.00;100958.88;5075159;28;20259;-61
2022/05/09 04:18:17;;;;;;;10.93;9.83;;;;;;;10.05;100.00;100953.78;5052633;28;20188;-62
2022/05/09 04:20:44;;;;;;;12.23;9.90;;;;;;;10.08;100.00;100957.06;5051089;28;20223;-62
2022/05/09 04:23:09;;;;;;;10.73;9.67;;;;;;;10.16;100.00;100954.22;5074793;28;20672;-62
2022/05/09 04:25:36;;;;;;;11.63;10.33;;;;;;;10.18;100.00;100958.41;5052476;28;20185;-62
2022/05/09 04:28:05;;;;;;;16.70;10.53;;;;;;;10.30;100.00;100958.81;5052102;28;20177;-62
2022/05/09 04:30:32;;;;;;;11.10;10.07;;;;;;;10.38;100.00;100956.81;5045065;28;20636;-62
2022/05/09 04:32:57;;;;;;;11.27;9.63;;;;;;;10.42;100.00;100955.78;5052595;28;20173;-62
2022/05/09 04:35:24;;;;;;;11.83;10.17;;;;;;;10.52;100.00;100956.25;5052395;28;20190;-63
2022/05/09 04:37:52;;;;;;;13.07;9.17;;;;;;;10.62;100.00;100957.53;5051645;28;20212;-62
2022/05/09 04:40:29;;;;;;;10.40;9.50;;;;;;;10.75;100.00;100951.88;5045503;28;20194;-63
2022/05/09 04:42:56;;;;;;;10.63;9.53;;;;;;;10.87;100.00;100951.38;5074181;28;20189;-62
2022/05/09 04:45:22;;;;;;;13.40;9.20;;;;;;;10.90;100.00;100956.41;5069033;28;20230;-63
2022/05/09 04:47:50;;;;;;;10.77;9.77;;;;;;;11.02;100.00;100957.59;5068388;28;20184;-63
2022/05/09 04:50:16;;;;;;;9.90;9.00;;;;;;;11.16;100.00;100959.59;5062096;28;20177;-62
2022/05/09 04:52:42;;;;;;;12.87;9.47;;;;;;;11.29;100.00;100962.47;5082124;28;20177;-63
2022/05/09 04:55:08;;;;;;;10.90;9.67;;;;;;;11.26;100.00;100963.47;5068713;28;20192;-62
2022/05/09 04:57:33;;;;;;;10.87;9.73;;;;;;;11.43;100.00;100967.03;5067581;28;20181;-61
2022/05/09 04:59:59;;;;;;;9.80;8.80;;;;;;;11.59;100.00;100967.19;5053314;28;20181;-63
2022/05/09 05:02:25;;;;;;;11.00;9.87;;;;;;;11.46;100.00;100959.13;5058591;28;20285;-64
2022/05/09 05:04:50;;;;;;;10.13;9.13;;;;;;;11.62;100.00;100964.44;5053469;28;20170;-62
2022/05/09 05:07:15;;;;;;;11.63;10.13;;;;;;;11.75;100.00;100962.16;5052848;28;20205;-62
2022/05/09 05:09:41;;;;;;;11.10;9.10;;;;;;;11.93;100.00;100963.91;5053021;28;20227;-63
2022/05/09 05:12:07;;;;;;;8.93;8.13;;;;;;;12.07;100.00;100960.69;5077790;28;20353;-63
2022/05/09 05:14:32;;;;;;;9.43;8.53;;;;;;;12.30;100.00;100963.09;5052839;28;20283;-63
2022/05/09 05:17:00;;;;;;;11.13;9.03;;;;;;;12.41;100.00;100964.22;5050772;28;20706;-63
2022/05/09 05:19:27;;;;;;;11.83;8.30;;;;;;;12.57;100.00;100966.09;5053002;28;20177;-63
2022/05/09 05:21:53;;;;;;;9.93;8.57;;;;;;;12.75;100.00;100967.75;5041048;28;20274;-63
2022/05/09 05:24:18;;;;;;;10.50;9.20;;;;;;;12.91;100.00;100967.81;5052795;28;20623;-63
2022/05/09 05:26:44;;;;;;;8.80;7.90;;;;;;;13.10;100.00;100968.63;5052361;28;20189;-62
2022/05/09 05:29:09;;;;;;;8.50;7.70;;;;;;;13.07;100.00;100967.88;5051522;28;20261;-65
2022/05/09 05:31:34;;;;;;;10.03;8.43;;;;;;;13.01;100.00;100969.94;5054469;28;20236;-65
2022/05/09 05:34:00;;;;;;;12.03;9.13;;;;;;;13.23;100.00;100972.25;5056333;28;20513;-64
2022/05/09 05:36:26;;;;;;;9.70;8.50;;;;;;;13.36;100.00;100970.69;5050593;28;20629;-65
2022/05/09 05:38:51;;;;;;;8.60;7.73;;;;;;;13.39;100.00;100974.91;5046122;28;20182;-65
2022/05/09 05:41:18;;;;;;;13.83;8.57;;;;;;;13.42;100.00;100976.47;5055576;28;20247;-64
2022/05/09 05:43:44;;;;;;;12.30;8.63;;;;;;;13.68;100.00;100977.69;5063832;28;20184;-64
2022/05/09 05:46:09;;;;;;;9.53;8.43;;;;;;;13.60;100.00;100977.28;5052124;28;20181;-65
2022/05/09 05:48:35;;;;;;;9.20;8.30;;;;;;;13.70;100.00;100970.69;5065554;28;20188;-63
2022/05/09 05:51:00;;;;;;;12.50;8.83;;;;;;;13.74;100.00;100971.38;5056777;28;20209;-63
2022/05/09 05:53:25;;;;;;;8.33;7.53;;;;;;;13.82;100.00;100982.13;5033606;28;20187;-64
2022/05/09 05:55:51;;;;;;;8.03;6.43;;;;;;;13.93;97.17;100986.69;5026768;28;20561;-64
2022/05/09 05:58:16;;;;;;;10.00;6.77;;;;;;;14.21;96.00;100991.19;5014392;28;20270;-64
2022/05/09 06:00:41;;;;;;;8.87;6.03;;;;;;;14.23;91.12;100988.50;5027749;28;20228;-65
2022/05/09 06:03:08;;;;;;;11.80;5.57;;;;;;;14.16;88.92;100986.25;5056518;28;20617;-64
2022/05/09 06:05:33;;;;;;;11.00;5.70;;;;;;;14.35;88.31;100983.50;5049916;28;20165;-65
2022/05/09 06:07:59;;;;;;;7.87;5.20;;;;;;;14.38;87.35;100982.50;5050603;28;20264;-64
2022/05/09 06:10:26;;;;;;;6.53;5.60;;;;;;;14.47;85.36;100976.78;5046148;28;20234;-64
2022/05/09 06:12:53;;;;;;;8.37;5.33;;;;;;;14.40;84.88;100988.44;5076474;28;20220;-64
2022/05/09 06:15:33;;;;;;;8.20;5.03;;;;;;;14.60;84.56;100987.28;5051424;28;20625;-64
2022/05/09 06:18:12;;;;;;;8.03;5.17;;;;;;;14.68;82.51;100985.09;5042978;28;20174;-64
2022/05/09 06:20:40;;;;;;;7.80;5.50;;;;;;;14.64;81.60;100988.78;5049593;28;20228;-65
2022/05/09 06:23:06;;;;;;;6.77;5.17;;;;;;;14.77;80.94;100993.28;5049944;28;20212;-65
2022/05/09 06:25:34;;;;;;;8.63;5.30;;;;;;;14.88;80.06;100995.25;5046482;28;20201;-64
2022/05/09 06:28:00;;;;;;;10.77;5.07;;;;;;;15.22;78.42;100991.50;5030913;28;20186;-64
2022/05/09 06:30:27;;;;;;;7.03;4.77;;;;;;;15.63;75.41;100993.31;5027862;28;20227;-64
2022/05/09 06:32:53;;;;;;;8.57;4.30;;;;;;;16.28;70.27;100994.47;5043948;28;20190;-64
2022/05/09 06:35:23;;;;;;;7.03;4.63;;;;;;;16.54;69.28;100985.94;5030027;28;20166;-60
2022/05/09 06:37:50;;;;;;;5.30;4.63;;;;;;;17.12;67.29;100990.78;5021945;28;20201;-60
2022/05/09 06:40:16;;;;;;;6.73;3.80;;;;;;;17.85;63.63;100995.25;5007505;28;20337;-61
2022/05/09 06:42:41;;;;;;;8.93;4.30;;;;;;;19.00;58.20;100992.16;5060019;28;20210;-61
2022/05/09 06:45:08;;;;;;;6.77;3.37;;;;;;;19.34;54.21;100993.03;5032294;28;20643;-62
2022/05/09 06:47:34;;;;;;;7.13;4.10;;;;;;;19.68;53.48;101002.59;5031351;28;20589;-63
2022/05/09 06:50:01;;;;;;;4.57;3.10;;;;;;;19.49;52.80;100998.00;5042828;28;20192;-61
2022/05/09 06:52:26;;;;;;;7.37;3.63;;;;;;;19.77;51.63;101009.72;5041784;28;20645;-61
2022/05/09 06:54:51;;;;;;;8.03;3.20;;;;;;;20.73;48.72;101012.50;5076906;28;20180;-64
2022/05/09 06:57:17;;;;;;;9.13;3.63;;;;;;;20.94;47.61;101006.44;5051766;28;20173;-63
2022/05/09 06:59:42;;;;;;;4.87;3.07;;;;;;;21.09;46.56;101007.75;5035836;28;20543;-65
2022/05/09 07:02:12;;;;;;;6.63;3.30;;;;;;;21.08;46.53;101007.88;5043949;28;20228;-64
2022/05/09 07:04:38;;;;;;;6.97;3.30;;;;;;;21.04;46.51;101002.06;5041102;28;20538;-63
2022/05/09 07:07:03;;;;;;;5.93;3.20;;;;;;;20.71;45.70;101010.94;5050623;28;20258;-63
2022/05/09 07:09:29;;;;;;;4.67;3.73;;;;;;;20.40;46.76;101016.06;5052439;28;20657;-63
2022/05/09 07:11:54;;;;;;;7.07;3.63;;;;;;;20.35;46.75;101007.78;5071398;28;20240;-63
2022/05/09 07:14:20;;;;;;;5.53;3.50;;;;;;;20.57;46.45;101012.09;5051205;28;20193;-63
2022/05/09 07:16:45;;;;;;;4.27;3.10;;;;;;;20.56;46.39;101011.25;5044902;28;20264;-63
2022/05/09 07:19:11;;;;;;;4.77;3.40;;;;;;;20.35;45.86;101008.59;5041405;28;20181;-63
2022/05/09 07:21:36;;;;;;;4.20;3.00;;;;;;;20.64;45.86;101010.63;5052652;28;20262;-63
2022/05/09 07:24:01;;;;;;;6.53;3.00;;;;;;;21.04;44.87;101003.88;5066653;28;20185;-63
2022/05/09 07:26:27;;;;;;;4.67;3.10;;;;;;;21.23;43.80;101010.97;5051390;28;20196;-65
2022/05/09 07:28:52;;;;;;;5.40;2.60;;;;;;;21.02;43.78;101005.78;5051809;28;20174;-64
2022/05/09 07:31:17;;;;;;;5.17;2.77;;;;;;;21.06;43.01;101013.25;5030353;28;20243;-63
2022/05/09 07:33:43;;;;;;;6.37;2.43;;;;;;;21.20;43.63;101017.31;5053760;28;20174;-63
2022/05/09 07:36:08;;;;;;;4.87;2.93;;;;;;;21.73;41.92;101013.66;5057306;28;20525;-63
2022/05/09 07:38:34;;;;;;;7.27;2.80;;;;;;;21.90;42.10;101012.16;5050938;28;20537;-62
2022/05/09 07:40:59;;;;;;;4.67;2.70;;;;;;;22.64;39.38;101012.63;5056243;28;20220;-62
2022/05/09 07:43:27;;;;;;;4.43;2.50;;;;;;;22.00;40.44;101021.84;5068217;28;20299;-62
2022/05/09 07:45:54;;;;;;;7.37;2.97;;;;;;;22.87;38.75;101015.75;5038498;28;20201;-63
2022/05/09 07:48:20;;;;;;;5.93;2.53;;;;;;;22.80;39.37;101017.28;5043893;28;20211;-62
2022/05/09 07:50:46;;;;;;;5.70;2.80;;;;;;;23.81;38.00;101019.22;5050908;28;20257;-63
2022/05/09 07:53:32;;;;;;;3.85;2.72;;;;;;;23.07;38.59;101018.31;5047502;28;20599;-62
2022/05/09 07:55:57;;;;;;;4.00;2.40;;;;;;;22.73;39.26;101022.25;5045189;28;20201;-64
2022/05/09 07:58:23;;;;;;;5.72;2.35;;;;;;;23.53;38.38;101024.50;5033903;28;20598;-62
2022/05/09 08:00:49;;;;;;;4.15;2.92;;;;;;;23.50;36.84;101019.53;5047332;28;20218;-63
2022/05/09 08:03:23;;;;;;;5.00;2.95;;;;;;;23.24;37.22;101021.19;5063404;28;20213;-64
2022/05/09 08:05:49;;;;;;;6.72;3.28;;;;;;;23.30;37.43;101031.91;5053128;28;20209;-63
2022/05/09 08:08:16;;;;;;;6.43;3.10;;;;;;;23.46;37.60;101020.00;5052614;28;20190;-62
2022/05/09 08:10:42;;;;;;;4.28;3.08;;;;;;;24.14;36.09;101024.84;5040634;28;20225;-62
2022/05/09 08:13:08;;;;;;;7.82;3.05;;;;;;;24.42;35.92;101030.03;5048967;28;20632;-62
2022/05/09 08:15:34;;;;;;;4.63;3.00;;;;;;;24.97;34.36;101030.75;5051930;28;20312;-63
2022/05/09 08:18:01;;;;;;;4.70;2.83;;;;;;;24.05;36.36;101032.78;5052731;28;20240;-62
2022/05/09 08:20:33;;;;;;;5.25;3.00;;;;;;;24.62;34.91;101035.06;5047246;28;20232;-63
2022/05/09 08:23:06;;;;;;;7.07;3.20;;;;;;;25.11;34.49;101021.44;5075733;28;20274;-63
2022/05/09 08:25:34;;;;;;;5.25;3.45;;;;;;;24.88;35.16;101029.88;5045292;28;20193;-62
2022/05/09 08:28:01;;;;;;;5.72;2.63;;;;;;;25.15;35.12;101022.78;5066137;28;20258;-63
2022/05/09 08:30:32;;;;;;;5.05;2.88;;;;;;;25.79;33.79;101030.28;5058131;28;20297;-61
2022/05/09 08:32:58;;;;;;;7.18;2.70;;;;;;;27.17;32.22;101026.94;5040184;28;20262;-61
2022/05/09 08:35:23;;;;;;;4.82;2.85;;;;;;;24.59;35.03;101036.22;5017360;28;20653;-62
2022/05/09 08:37:48;;;;;;;4.40;2.67;;;;;;;24.86;34.63;101033.63;5029685;28;20641;-61
2022/05/09 08:40:15;;;;;;;6.13;2.63;;;;;;;25.27;34.29;101024.16;5026507;28;20182;-61
2022/05/09 08:42:48;;;;;;;8.23;3.40;;;;;;;24.60;35.30;101026.53;5061940;28;20190;-62
2022/05/09 08:45:33;;;;;;;4.60;2.53;;;;;;;25.45;34.32;101016.19;5066369;28;20214;-63
2022/05/09 08:48:04;;;;;;;4.30;2.97;;;;;;;25.99;33.45;101016.81;5065799;28;20625;-64
2022/05/09 08:50:56;;;;;;;3.90;2.63;;;;;;;25.79;33.35;101022.38;5047240;28;20228;-63
2022/05/09 08:53:24;;;;;;;9.55;3.00;;;;;;;25.99;33.22;101022.91;5068081;28;20189;-63
2022/05/09 08:55:52;;;;;;;5.03;2.70;;;;;;;27.10;32.36;101028.63;5051879;28;20178;-62
2022/05/09 08:58:33;;;;;;;6.43;3.40;;;;;;;26.17;32.90;101027.22;5045078;28;20193;-63
2022/05/09 09:01:03;;;;;;;6.90;3.40;;;;;;;27.02;32.27;101021.56;5038875;28;20653;-63
2022/05/09 09:03:38;;;;;;;5.60;2.88;;;;;;;27.21;32.47;101012.44;5048758;28;20279;-63
2022/05/09 09:06:45;;;;;;;6.10;3.35;;;;;;;26.13;32.88;101023.28;5031832;28;20641;-63
2022/05/09 09:09:28;;;;;;;10.68;3.38;;;;;;;27.60;31.14;101021.34;4989279;28;20898;-62
2022/05/09 09:12:06;;;;;;;6.07;3.15;;;;;;;28.34;31.34;101027.97;5052468;28;20264;-64
2022/05/09 09:14:48;;;;;;;4.38;3.00;;;;;;;28.15;29.44;101026.63;5033321;28;20245;-64
2022/05/09 09:17:33;;;;;;;8.82;3.67;;;;;;;26.90;31.47;101022.91;5033069;28;20243;-63
2022/05/09 09:20:08;;;;;;;6.28;2.67;;;;;;;28.08;30.02;101025.69;5033234;28;20186;-63
2022/05/09 09:23:05;;;;;;;7.03;3.10;;;;;;;29.14;29.73;101031.00;5040024;28;20221;-64
2022/05/09 09:25:39;;;;;;;5.97;2.78;;;;;;;28.91;28.29;101029.25;5036014;28;20193;-63
2022/05/09 09:28:47;;;;;;;5.05;3.05;;;;;;;30.10;28.44;101025.59;5067313;28;20199;-63
2022/05/09 09:31:16;;;;;;;4.90;2.80;;;;;;;30.43;26.54;101025.03;5049878;28;20319;-64
2022/05/09 09:33:51;;;;;;;6.47;2.95;;;;;;;28.96;28.52;101028.72;5038043;28;20175;-62
2022/05/09 09:36:17;;;;;;;5.03;3.50;;;;;;;28.84;28.89;101025.72;5056398;28;20249;-63
2022/05/09 09:38:53;;;;;;;7.57;2.95;;;;;;;28.16;30.07;101026.47;5051624;28;20182;-63
2022/05/09 09:41:27;;;;;;;6.45;3.70;;;;;;;29.45;27.31;101016.75;5054946;28;20251;-62
2022/05/09 09:44:07;;;;;;;4.03;2.90;;;;;;;29.28;27.60;101024.84;5056380;28;20185;-62
2022/05/09 09:46:32;;;;;;;5.18;3.30;;;;;;;29.69;27.36;101017.41;5051069;28;20580;-62
2022/05/09 09:49:08;;;;;;;7.72;2.80;;;;;;;28.32;28.68;101025.50;5053157;28;20271;-61
2022/05/09 09:51:48;;;;;;;6.00;3.13;;;;;;;27.42;30.14;101013.66;5056034;28;20303;-62
2022/05/09 09:54:19;;;;;;;6.28;3.05;;;;;;;28.66;28.72;101008.31;5053235;28;20306;-61
2022/05/09 09:56:44;;;;;;;8.05;3.70;;;;;;;30.54;26.98;101013.09;5049998;28;20190;-61
2022/05/09 09:59:13;;;;;;;3.88;3.50;;;;;;;31.53;25.45;101010.28;5052699;28;20179;-63
2022/05/09 10:01:38;;;;;;;5.30;3.40;;;;;;;32.47;24.73;101015.72;5062254;28;20224;-63
2022/05/09 10:04:09;;;;;;;4.82;2.80;;;;;;;31.93;24.95;101013.06;5054315;28;20541;-63
2022/05/09 10:06:54;;;;;;;4.47;2.58;;;;;;;31.46;25.49;101010.28;5046168;28;20638;-63
2022/05/09 10:09:20;;;;;;;4.97;2.85;;;;;;;29.90;27.05;101008.66;5042663;28;20284;-63
2022/05/09 10:11:46;;;;;;;6.65;3.60;;;;;;;27.44;30.33;101003.75;5057802;28;20413;-62
2022/05/09 10:14:29;;;;;;;5.00;3.40;;;;;;;26.80;31.74;101006.44;5053644;28;20268;-64
2022/05/09 10:17:17;;;;;;;5.03;3.38;;;;;;;27.77;29.95;100992.19;5051818;28;20316;-63
2022/05/09 10:19:43;;;;;;;5.55;3.20;;;;;;;28.58;29.23;100992.53;5046918;28;20255;-62
2022/05/09 10:25:09;;;;;;;5.15;3.13;;;;;;;29.96;27.20;100984.03;5052919;28;20242;-65
2022/05/09 10:27:36;;;;;;;4.18;3.22;;;;;;;29.05;27.97;100982.59;5045650;28;20184;-64
2022/05/09 10:30:29;;;;;;;5.40;3.38;;;;;;;28.95;28.30;100985.53;5031451;28;20232;-63
2022/05/09 10:33:11;;;;;;;6.40;3.00;;;;;;;29.07;27.96;100969.97;5042200;28;20189;-63
2022/05/09 10:35:56;;;;;;;4.50;3.20;;;;;;;30.01;27.51;100975.50;5049703;28;20181;-62
2022/05/09 10:38:48;;;;;;;5.43;3.38;;;;;;;28.50;29.07;100972.28;5045842;28;20181;-63
2022/05/09 10:41:43;;;;;;;6.80;4.95;;;;;;;26.99;31.54;100973.56;5060136;28;20224;-64
2022/05/09 10:44:32;;;;;;;5.60;3.70;;;;;;;25.63;33.45;100965.22;5054413;28;20200;-63
2022/05/09 10:47:05;;;;;;;9.15;3.40;;;;;;;24.17;36.10;100960.63;5031333;28;20223;-62
2022/05/09 10:49:43;;;;;;;5.07;3.60;;;;;;;23.23;37.99;100956.53;5063485;28;20178;-62
2022/05/09 10:52:30;;;;;;;4.82;3.78;;;;;;;22.50;39.68;100956.22;5055368;28;20262;-62
2022/05/09 10:55:08;;;;;;;7.53;3.97;;;;;;;22.68;39.65;100947.59;5032701;28;20170;-62
2022/05/09 10:57:44;;;;;;;5.37;3.60;;;;;;;22.48;39.95;100941.59;5030237;28;20190;-62
2022/05/09 11:00:24;;;;;;;5.57;3.87;;;;;;;22.34;41.38;100934.94;5011327;28;20231;-61
2022/05/09 11:02:52;;;;;;;4.73;3.27;;;;;;;22.71;42.60;100934.19;5038711;28;20206;-63
2022/05/09 11:05:17;;;;;;;4.90;3.83;;;;;;;22.61;40.10;100931.59;5011631;28;20465;-62
2022/05/09 11:07:55;;;;;;;6.13;3.60;;;;;;;22.36;40.54;100936.47;5012015;28;20242;-62
2022/05/09 11:10:38;;;;;;;4.20;3.40;;;;;;;22.36;41.11;100920.75;5027696;28;20187;-62
2022/05/09 11:13:25;;;;;;;5.13;3.40;;;;;;;22.44;41.34;100925.31;5027118;28;20213;-62
2022/05/09 11:16:23;;;;;;;6.10;3.10;;;;;;;22.72;41.44;100922.75;5027313;28;20241;-63
2022/05/09 11:19:08;;;;;;;4.17;3.00;;;;;;;22.52;41.00;100911.50;5029825;28;20277;-63
2022/05/09 11:22:01;;;;;;;5.17;3.00;;;;;;;22.46;41.32;100915.50;5046935;28;20217;-62
2022/05/09 11:25:10;;;;;;;4.37;3.70;;;;;;;22.69;40.64;100917.78;5033834;28;20520;-62
2022/05/09 11:28:08;;;;;;;8.77;3.40;;;;;;;22.68;40.82;100906.47;5050188;28;20244;-62
2022/05/09 11:30:48;;;;;;;6.87;3.63;;;;;;;22.45;40.30;100908.63;5027202;28;20311;-62
2022/05/09 11:33:33;;;;;;;5.43;4.10;;;;;;;22.39;40.21;100906.56;5054044;28;20185;-62
2022/05/09 11:36:25;;;;;;;4.97;3.63;;;;;;;22.51;41.07;100894.09;5054544;28;20178;-63
2022/05/09 11:39:14;;;;;;;5.07;3.33;;;;;;;22.61;40.52;100888.84;5045955;28;20190;-63